createdAt,value
2023-05-11T00:01:11.969Z,100758.67
2023-05-11T00:03:44.980Z,100757.93
2023-05-11T00:06:17.196Z,100758.08
2023-05-11T00:08:49.416Z,100761.11
2023-05-11T00:11:21.678Z,100757.23
2023-05-11T00:13:53.831Z,100739.70
2023-05-11T00:16:26.213Z,100755.75
2023-05-11T00:18:58.662Z,100755.26
2023-05-11T00:21:31.152Z,100755.87
2023-05-11T00:24:03.433Z,100752.71
2023-05-11T00:26:35.862Z,100758.46
2023-05-11T00:29:08.013Z,100755.17
2023-05-11T00:31:40.543Z,100752.29
2023-05-11T00:34:13.263Z,100755.69
2023-05-11T00:36:45.893Z,100752.21
2023-05-11T00:39:18.473Z,100744.46
2023-05-11T00:41:50.674Z,100758.73
2023-05-11T00:44:22.998Z,100762.64
2023-05-11T00:46:55.318Z,100756.67
2023-05-11T00:49:27.770Z,100758.66
2023-05-11T00:52:03.144Z,100760.48
2023-05-11T00:54:36.836Z,100757.54
2023-05-11T00:57:09.218Z,100757.34
2023-05-11T00:59:41.596Z,100738.06
2023-05-11T01:02:14.060Z,100757.52
2023-05-11T01:04:46.917Z,100751.50
2023-05-11T01:07:24.324Z,100753.63
2023-05-11T01:10:07.642Z,100755.70
2023-05-11T01:12:48.164Z,100755.18
2023-05-11T01:15:26.172Z,100754.23
2023-05-11T01:18:05.595Z,100751.27
2023-05-11T01:20:37.969Z,100752.34
2023-05-11T01:23:38.799Z,100754.48
2023-05-11T01:26:25.172Z,100751.39
2023-05-11T01:29:15.423Z,100752.23
2023-05-11T01:31:50.872Z,100752.44
2023-05-11T01:34:26.949Z,100752.29
2023-05-11T01:37:06.495Z,100757.79
2023-05-11T01:39:42.170Z,100752.98
2023-05-11T01:42:15.483Z,100754.92
2023-05-11T01:44:51.611Z,100754.92
2023-05-11T01:47:27.451Z,100757.33
2023-05-11T01:50:01.908Z,100754.98
2023-05-11T01:52:35.639Z,100759.67
2023-05-11T01:55:11.205Z,100760.08
2023-05-11T01:57:44.524Z,100768.19
2023-05-11T02:00:19.652Z,100749.43
2023-05-11T02:02:54.708Z,100764.70
2023-05-11T02:05:28.418Z,100766.83
2023-05-11T02:08:02.586Z,100764.98
2023-05-11T02:10:38.289Z,100769.02
2023-05-11T02:13:11.510Z,100769.95
2023-05-11T02:15:46.160Z,100766.54
2023-05-11T02:18:20.429Z,100764.46
2023-05-11T02:20:54.028Z,100770.87
2023-05-11T02:23:28.196Z,100768.91
2023-05-11T02:26:01.069Z,100769.64
2023-05-11T02:28:34.037Z,100772.02
2023-05-11T02:31:17.996Z,100774.73
2023-05-11T02:33:54.620Z,100779.77
2023-05-11T02:36:29.590Z,100781.30
2023-05-11T02:39:07.051Z,100779.59
2023-05-11T02:41:44.799Z,100778.47
2023-05-11T02:44:21.314Z,100781.52
2023-05-11T02:46:57.037Z,100777.98
2023-05-11T02:49:32.875Z,100785.27
2023-05-11T02:52:07.624Z,100786.83
2023-05-11T02:54:43.831Z,100786.27
2023-05-11T02:57:16.762Z,100788.91
2023-05-11T02:59:50.723Z,100773.46
2023-05-11T03:02:23.732Z,100788.27
2023-05-11T03:04:56.408Z,100791.83
2023-05-11T03:07:29.231Z,100778.37
2023-05-11T03:10:02.784Z,100793.71
2023-05-11T03:12:39.105Z,100794.21
2023-05-11T03:15:13.153Z,100794.27
2023-05-11T03:17:47.563Z,100791.14
2023-05-11T03:20:23.468Z,100791.13
2023-05-11T03:22:56.724Z,100789.51
2023-05-11T03:25:30.013Z,100789.67
2023-05-11T03:28:05.536Z,100794.23
2023-05-11T03:30:39.073Z,100793.10
2023-05-11T03:33:11.371Z,100798.64
2023-05-11T03:35:47.808Z,100799.67
2023-05-11T03:38:29.255Z,100788.09
2023-05-11T03:41:03.291Z,100797.05
2023-05-11T03:43:39.918Z,100793.02
2023-05-11T03:46:13.287Z,100795.48
2023-05-11T03:48:46.233Z,100798.27
2023-05-11T03:51:20.948Z,100798.27
2023-05-11T03:53:53.470Z,100797.20
2023-05-11T03:56:26.094Z,100797.48
2023-05-11T03:58:58.682Z,100797.66
2023-05-11T04:01:31.481Z,100800.69
2023-05-11T04:04:04.033Z,100802.98
2023-05-11T04:06:36.867Z,100801.45
2023-05-11T04:09:28.131Z,100800.45
2023-05-11T04:12:00.912Z,100801.23
2023-05-11T04:14:34.139Z,100802.94
2023-05-11T04:17:06.628Z,100802.40
2023-05-11T04:19:38.873Z,100802.80
2023-05-11T04:22:12.255Z,100803.84
2023-05-11T04:24:45.280Z,100800.59
2023-05-11T04:27:17.812Z,100787.62
2023-05-11T04:29:50.001Z,100798.48
2023-05-11T04:32:23.708Z,100799.30
2023-05-11T04:34:56.216Z,100799.12
2023-05-11T04:37:30.404Z,100800.43
2023-05-11T04:40:04.526Z,100807.17
2023-05-11T04:42:42.613Z,100805.22
2023-05-11T04:45:20.218Z,100807.17
2023-05-11T04:47:52.865Z,100804.60
2023-05-11T04:50:25.190Z,100807.13
2023-05-11T04:52:57.989Z,100807.44
2023-05-11T04:55:30.417Z,100809.13
2023-05-11T04:58:04.530Z,100812.03
2023-05-11T05:00:37.796Z,100813.76
2023-05-11T05:03:10.045Z,100813.39
2023-05-11T05:05:42.306Z,100817.25
2023-05-11T05:08:15.789Z,100817.70
2023-05-11T05:10:54.653Z,100817.88
2023-05-11T05:13:27.314Z,100819.02
2023-05-11T05:15:59.972Z,100822.59
2023-05-11T05:18:35.661Z,100826.73
2023-05-11T05:21:08.461Z,100830.11
2023-05-11T05:23:40.851Z,100831.15
2023-05-11T05:26:13.283Z,100830.80
2023-05-11T05:28:46.196Z,100828.17
2023-05-11T05:31:18.821Z,100828.81
2023-05-11T05:33:51.876Z,100830.48
2023-05-11T05:36:24.371Z,100834.11
2023-05-11T05:38:56.662Z,100835.11
2023-05-11T05:41:29.919Z,100837.79
2023-05-11T05:44:03.726Z,100839.35
2023-05-11T05:46:36.476Z,100837.55
2023-05-11T05:49:09.321Z,100842.27
2023-05-11T05:51:42.599Z,100838.52
2023-05-11T05:54:15.218Z,100843.23
2023-05-11T05:56:49.335Z,100844.34
2023-05-11T05:59:23.604Z,100847.86
2023-05-11T06:01:59.639Z,100850.34
2023-05-11T06:04:31.990Z,100849.77
2023-05-11T06:07:04.541Z,100849.92
2023-05-11T06:09:39.028Z,100852.54
2023-05-11T06:12:11.908Z,100861.17
2023-05-11T06:14:47.373Z,100862.23
2023-05-11T06:17:19.855Z,100862.67
2023-05-11T06:19:53.499Z,100861.91
2023-05-11T06:22:27.757Z,100853.48
2023-05-11T06:24:59.889Z,100865.09
2023-05-11T06:27:32.450Z,100864.45
2023-05-11T06:30:04.873Z,100866.73
2023-05-11T06:32:38.913Z,100868.43
2023-05-11T06:35:12.310Z,100869.86
2023-05-11T06:37:44.803Z,100870.38
2023-05-11T06:40:17.423Z,100859.08
2023-05-11T06:42:50.242Z,100873.63
2023-05-11T06:45:22.792Z,100875.80
2023-05-11T06:47:55.182Z,100871.48
2023-05-11T06:50:28.488Z,100874.23
2023-05-11T06:53:01.215Z,100873.19
2023-05-11T06:55:34.649Z,100878.24
2023-05-11T06:58:07.239Z,100877.35
2023-05-11T07:00:39.483Z,100873.11
2023-05-11T07:03:11.733Z,100872.73
2023-05-11T07:05:44.357Z,100874.61
2023-05-11T07:08:16.684Z,100875.26
2023-05-11T07:10:48.804Z,100876.95
2023-05-11T07:13:21.238Z,100873.48
2023-05-11T07:15:56.637Z,100876.62
2023-05-11T07:18:29.690Z,100873.09
2023-05-11T07:21:01.763Z,100875.65
2023-05-11T07:23:33.935Z,100873.39
2023-05-11T07:26:09.089Z,100875.80
2023-05-11T07:28:41.560Z,100871.06
2023-05-11T07:31:13.706Z,100870.73
2023-05-11T07:33:45.817Z,100873.55
2023-05-11T07:36:18.427Z,100873.14
2023-05-11T07:38:50.701Z,100878.84
2023-05-11T07:41:26.130Z,100869.91
2023-05-11T07:43:58.512Z,100873.05
2023-05-11T07:46:31.280Z,100877.85
2023-05-11T07:49:15.774Z,100879.61
2023-05-11T07:51:53.222Z,100878.95
2023-05-11T07:54:26.361Z,100881.20
2023-05-11T07:56:58.355Z,100884.08
2023-05-11T07:59:31.270Z,100885.67
2023-05-11T08:02:04.254Z,100886.98
2023-05-11T08:04:36.734Z,100889.36
2023-05-11T08:07:09.140Z,100891.10
2023-05-11T08:09:41.530Z,100888.67
2023-05-11T08:12:13.838Z,100890.50
2023-05-11T08:14:46.120Z,100886.86
2023-05-11T08:17:20.369Z,100890.06
2023-05-11T08:19:52.545Z,100890.02
2023-05-11T08:22:24.653Z,100889.25
2023-05-11T08:24:56.815Z,100890.65
2023-05-11T08:27:29.072Z,100895.96
2023-05-11T08:30:01.455Z,100892.78
2023-05-11T08:32:50.113Z,100890.33
2023-05-11T08:35:27.757Z,100889.21
2023-05-11T08:38:00.030Z,100886.63
2023-05-11T08:40:33.861Z,100888.32
2023-05-11T08:43:08.050Z,100874.15
2023-05-11T08:45:43.412Z,100888.14
2023-05-11T08:48:17.839Z,100893.17
2023-05-11T08:50:50.162Z,100877.55
2023-05-11T08:53:22.423Z,100892.21
2023-05-11T08:55:55.922Z,100890.82
2023-05-11T08:58:29.194Z,100891.71
2023-05-11T09:01:02.288Z,100891.88
2023-05-11T09:03:37.221Z,100891.19
2023-05-11T09:06:12.805Z,100887.88
2023-05-11T09:08:47.316Z,100889.59
2023-05-11T09:11:19.396Z,100890.11
2023-05-11T09:13:51.964Z,100888.07
2023-05-11T09:16:36.354Z,100886.05
2023-05-11T09:19:15.152Z,100886.33
2023-05-11T09:21:48.301Z,100885.46
2023-05-11T09:24:22.852Z,100887.46
2023-05-11T09:27:09.323Z,100887.34
2023-05-11T09:29:41.554Z,100882.91
2023-05-11T09:32:14.833Z,100884.02
2023-05-11T09:34:47.647Z,100882.88
2023-05-11T09:37:20.921Z,100882.96
2023-05-11T09:42:32.836Z,100882.18
2023-05-11T09:45:05.401Z,100881.43
2023-05-11T09:47:42.304Z,100882.11
2023-05-11T09:50:26.201Z,100881.28
2023-05-11T09:52:58.958Z,100875.80
2023-05-11T09:55:31.106Z,100876.28
2023-05-11T09:58:04.761Z,100876.86
2023-05-11T10:00:37.354Z,100874.92
2023-05-11T10:03:10.369Z,100873.06
2023-05-11T10:05:43.041Z,100864.50
2023-05-11T10:08:15.460Z,100868.13
2023-05-11T10:10:48.435Z,100857.31
2023-05-11T10:13:20.556Z,100868.48
2023-05-11T10:15:55.278Z,100858.14
2023-05-11T10:18:26.730Z,100857.65
2023-05-11T10:21:00.691Z,100863.59
2023-05-11T10:23:34.708Z,100859.02
2023-05-11T10:26:07.914Z,100857.98
2023-05-11T10:28:40.906Z,100856.92
2023-05-11T10:31:14.283Z,100853.48
2023-05-11T10:33:48.613Z,100853.27
2023-05-11T10:36:24.403Z,100856.83
2023-05-11T10:38:56.870Z,100852.13
2023-05-11T10:41:42.563Z,100846.52
2023-05-11T10:44:31.534Z,100848.66
2023-05-11T10:47:29.022Z,100848.35
2023-05-11T10:50:18.065Z,100845.02
2023-05-11T10:53:07.085Z,100842.67
2023-05-11T10:55:58.558Z,100841.62
2023-05-11T10:58:44.661Z,100844.33
2023-05-11T11:01:35.218Z,100843.20
2023-05-11T11:04:08.600Z,100839.26
2023-05-11T11:06:42.632Z,100837.35
2023-05-11T11:09:16.686Z,100842.66
2023-05-11T11:11:51.683Z,100840.31
2023-05-11T11:14:26.304Z,100843.86
2023-05-11T11:17:25.813Z,100844.34
2023-05-11T11:19:58.210Z,100842.27
2023-05-11T11:22:49.429Z,100840.15
2023-05-11T11:25:55.088Z,100836.48
2023-05-11T11:28:28.256Z,100821.15
2023-05-11T11:31:28.081Z,100836.56
2023-05-11T11:34:20.928Z,100833.39
2023-05-11T11:37:08.691Z,100835.48
2023-05-11T11:39:53.794Z,100826.68
2023-05-11T11:42:38.926Z,100831.45
2023-05-11T11:45:31.559Z,100832.21
2023-05-11T11:48:15.229Z,100829.96
2023-05-11T11:50:51.377Z,100832.27
2023-05-11T11:54:09.246Z,100828.23
2023-05-11T11:56:43.836Z,100816.42
2023-05-11T11:59:16.721Z,100819.46
2023-05-11T12:01:55.398Z,100819.98
2023-05-11T12:04:46.284Z,100823.45
2023-05-11T12:07:19.948Z,100822.98
2023-05-11T12:09:53.142Z,100822.54
2023-05-11T12:12:26.249Z,100823.56
2023-05-11T12:15:00.094Z,100828.02
2023-05-11T12:17:34.659Z,100812.86
2023-05-11T12:20:18.681Z,100821.71
2023-05-11T12:22:51.519Z,100825.66
2023-05-11T12:25:24.353Z,100824.21
2023-05-11T12:28:00.509Z,100822.40
2023-05-11T12:30:34.694Z,100819.15
2023-05-11T12:33:10.653Z,100820.73
2023-05-11T12:35:45.065Z,100821.13
2023-05-11T12:38:17.664Z,100819.59
2023-05-11T12:40:52.178Z,100817.83
2023-05-11T12:43:24.675Z,100819.42
2023-05-11T12:45:57.001Z,100816.76
2023-05-11T12:48:29.395Z,100811.96
2023-05-11T12:51:01.845Z,100811.48
2023-05-11T12:53:37.870Z,100811.40
2023-05-11T12:56:10.682Z,100810.52
2023-05-11T12:58:43.821Z,100806.71
2023-05-11T13:01:16.982Z,100810.48
2023-05-11T13:03:49.581Z,100806.00
2023-05-11T13:06:23.122Z,100805.83
2023-05-11T13:08:55.354Z,100792.60
2023-05-11T13:11:28.776Z,100799.63
2023-05-11T13:14:00.993Z,100793.05
2023-05-11T13:16:34.713Z,100796.39
2023-05-11T13:19:09.242Z,100793.64
2023-05-11T13:21:41.724Z,100790.27
2023-05-11T13:24:22.795Z,100785.39
2023-05-11T13:26:57.006Z,100776.82
2023-05-11T13:29:29.853Z,100779.68
2023-05-11T13:32:02.347Z,100778.93
2023-05-11T13:34:35.170Z,100773.52
2023-05-11T13:37:07.638Z,100776.77
2023-05-11T13:39:39.830Z,100768.80
2023-05-11T13:42:11.953Z,100766.74
2023-05-11T13:44:44.245Z,100755.95
2023-05-11T13:47:16.613Z,100769.73
2023-05-11T13:49:48.985Z,100764.83
2023-05-11T13:52:21.603Z,100766.02
2023-05-11T13:54:53.717Z,100771.48
2023-05-11T13:57:26.033Z,100773.48
2023-05-11T13:59:58.300Z,100770.62
2023-05-11T14:02:31.067Z,100767.15
2023-05-11T14:05:03.787Z,100770.45
2023-05-11T14:07:47.018Z,100770.70
2023-05-11T14:10:21.017Z,100770.81
2023-05-11T14:12:53.553Z,100771.48
2023-05-11T14:15:26.068Z,100763.74
2023-05-11T14:17:58.616Z,100768.02
2023-05-11T14:20:31.006Z,100763.80
2023-05-11T14:23:03.395Z,100759.81
2023-05-11T14:25:36.694Z,100761.63
2023-05-11T14:28:09.190Z,100761.70
2023-05-11T14:30:41.995Z,100762.08
2023-05-11T14:33:14.447Z,100761.14
2023-05-11T14:35:48.644Z,100761.41
2023-05-11T14:38:21.071Z,100759.06
2023-05-11T14:40:53.409Z,100747.46
2023-05-11T14:43:25.376Z,100757.30
2023-05-11T14:45:57.599Z,100757.28
2023-05-11T14:48:29.959Z,100757.77
2023-05-11T14:51:02.555Z,100757.48
2023-05-11T14:53:34.913Z,100756.31
2023-05-11T14:56:07.751Z,100744.04
2023-05-11T14:58:40.186Z,100756.11
2023-05-11T15:01:12.653Z,100759.35
2023-05-11T15:03:45.471Z,100761.52
2023-05-11T15:06:21.541Z,100762.63
2023-05-11T15:08:53.918Z,100765.49
2023-05-11T15:11:26.125Z,100763.27
2023-05-11T15:13:58.479Z,100761.48
2023-05-11T15:16:32.155Z,100765.73
2023-05-11T15:19:05.505Z,100762.39
2023-05-11T15:21:38.205Z,100759.77
2023-05-11T15:24:11.163Z,100755.18
2023-05-11T15:26:43.579Z,100750.27
2023-05-11T15:29:16.794Z,100757.08
2023-05-11T15:31:49.489Z,100753.30
2023-05-11T15:34:21.942Z,100759.46
2023-05-11T15:36:54.181Z,100754.66
2023-05-11T15:39:26.348Z,100757.84
2023-05-11T15:41:58.715Z,100754.29
2023-05-11T15:44:31.029Z,100755.90
2023-05-11T15:47:03.688Z,100759.34
2023-05-11T15:49:35.778Z,100762.64
2023-05-11T15:52:08.932Z,100766.39
2023-05-11T15:54:41.096Z,100769.14
2023-05-11T15:57:13.855Z,100768.00
2023-05-11T15:59:46.165Z,100765.27
2023-05-11T16:02:18.521Z,100769.01
2023-05-11T16:04:51.233Z,100767.88
2023-05-11T16:07:23.433Z,100768.48
2023-05-11T16:09:55.627Z,100765.77
2023-05-11T16:12:28.057Z,100769.92
2023-05-11T16:15:00.296Z,100767.98
2023-05-11T16:17:32.309Z,100768.33
2023-05-11T16:20:04.944Z,100768.90
2023-05-11T16:22:38.997Z,100765.43
2023-05-11T16:25:11.934Z,100765.31
2023-05-11T16:27:44.373Z,100752.52
2023-05-11T16:30:24.241Z,100766.38
2023-05-11T16:32:57.594Z,100767.46
2023-05-11T16:35:30.764Z,100766.66
2023-05-11T16:38:03.133Z,100765.66
2023-05-11T16:40:35.411Z,100768.67
2023-05-11T16:43:07.601Z,100766.17
2023-05-11T16:45:39.918Z,100770.70
2023-05-11T16:48:12.248Z,100763.77
2023-05-11T16:50:44.462Z,100764.91
2023-05-11T16:53:16.609Z,100768.77
2023-05-11T16:55:48.730Z,100754.80
2023-05-11T16:58:21.335Z,100767.48
2023-05-11T17:00:54.051Z,100768.33
2023-05-11T17:03:26.952Z,100768.25
2023-05-11T17:05:59.725Z,100770.52
2023-05-11T17:08:33.359Z,100761.78
2023-05-11T17:11:05.958Z,100771.27
2023-05-11T17:13:38.249Z,100775.66
2023-05-11T17:16:10.770Z,100777.38
2023-05-11T17:18:43.627Z,100778.77
2023-05-11T17:21:16.903Z,100779.41
2023-05-11T17:23:49.131Z,100781.80
2023-05-11T17:26:25.064Z,100784.27
2023-05-11T17:29:00.284Z,100781.50
2023-05-11T17:31:32.808Z,100781.05
2023-05-11T17:34:05.387Z,100783.77
2023-05-11T17:36:38.093Z,100784.98
2023-05-11T17:39:10.616Z,100783.70
2023-05-11T17:41:42.965Z,100787.38
2023-05-11T17:44:15.684Z,100787.25
2023-05-11T17:46:47.877Z,100789.13
2023-05-11T17:49:20.372Z,100793.13
2023-05-11T17:51:52.589Z,100794.36
2023-05-11T17:54:24.903Z,100799.30
2023-05-11T17:56:57.253Z,100799.30
2023-05-11T17:59:29.833Z,100802.94
2023-05-11T18:02:02.275Z,100805.40
2023-05-11T18:04:34.893Z,100803.27
2023-05-11T18:07:07.751Z,100807.83
2023-05-11T18:09:39.960Z,100810.52
2023-05-11T18:12:12.835Z,100812.21
2023-05-11T18:14:45.119Z,100813.91
2023-05-11T18:17:18.488Z,100815.14
2023-05-11T18:19:50.884Z,100817.61
2023-05-11T18:22:22.950Z,100806.50
2023-05-11T18:24:55.212Z,100822.85
2023-05-11T18:27:27.275Z,100814.73
2023-05-11T18:29:59.425Z,100821.56
2023-05-11T18:32:31.870Z,100830.31
2023-05-11T18:35:04.671Z,100829.91
2023-05-11T18:37:37.048Z,100836.61
2023-05-11T18:40:11.790Z,100839.51
2023-05-11T18:42:42.498Z,100841.06
2023-05-11T18:45:15.143Z,100850.02
2023-05-11T18:47:49.568Z,100848.42
2023-05-11T18:50:22.473Z,100851.51
2023-05-11T18:52:54.997Z,100854.70
2023-05-11T18:55:30.872Z,100854.92
2023-05-11T18:58:03.985Z,100857.86
2023-05-11T19:00:39.413Z,100848.85
2023-05-11T19:03:11.974Z,100865.46
2023-05-11T19:05:45.017Z,100868.86
2023-05-11T19:08:17.631Z,100871.83
2023-05-11T19:10:50.576Z,100877.08
2023-05-11T19:13:22.874Z,100874.94
2023-05-11T19:15:55.214Z,100876.56
2023-05-11T19:18:27.850Z,100881.99
2023-05-11T19:21:00.414Z,100884.62
2023-05-11T19:23:32.842Z,100887.52
2023-05-11T19:26:05.126Z,100891.42
2023-05-11T19:28:37.536Z,100895.42
2023-05-11T19:31:09.862Z,100894.98
2023-05-11T19:33:42.211Z,100900.02
2023-05-11T19:36:14.961Z,100902.22
2023-05-11T19:38:47.286Z,100902.75
2023-05-11T19:41:19.386Z,100899.73
2023-05-11T19:43:52.038Z,100894.16
2023-05-11T19:46:24.473Z,100910.82
2023-05-11T19:48:57.770Z,100914.70
2023-05-11T19:51:30.287Z,100914.23
2023-05-11T19:54:02.829Z,100917.94
2023-05-11T19:56:35.231Z,100919.13
2023-05-11T19:59:07.205Z,100918.49
2023-05-11T20:01:39.400Z,100918.67
2023-05-11T20:04:12.826Z,100915.96
2023-05-11T20:06:45.717Z,100915.42
2023-05-11T20:09:18.443Z,100918.09
2023-05-11T20:11:50.690Z,100916.34
2023-05-11T20:14:23.232Z,100917.02
2023-05-11T20:16:55.786Z,100921.11
2023-05-11T20:19:28.287Z,100924.60
2023-05-11T20:22:01.593Z,100928.71
2023-05-11T20:24:34.233Z,100932.02
2023-05-11T20:27:09.713Z,100936.21
2023-05-11T20:29:40.511Z,100933.43
2023-05-11T20:32:12.888Z,100939.15
2023-05-11T20:34:45.183Z,100937.95
2023-05-11T20:37:17.638Z,100936.11
2023-05-11T20:39:50.123Z,100944.18
2023-05-11T20:42:22.362Z,100943.23
2023-05-11T20:44:54.912Z,100946.38
2023-05-11T20:47:27.232Z,100945.65
2023-05-11T20:49:59.449Z,100943.42
2023-05-11T20:52:32.519Z,100946.73
2023-05-11T20:55:04.904Z,100951.14
2023-05-11T20:57:37.162Z,100935.95
2023-05-11T21:00:15.639Z,100952.58
2023-05-11T21:02:48.542Z,100938.36
2023-05-11T21:05:22.943Z,100947.20
2023-05-11T21:07:57.332Z,100953.79
2023-05-11T21:10:29.647Z,100953.23
2023-05-11T21:13:02.247Z,100954.13
2023-05-11T21:15:34.516Z,100950.91
2023-05-11T21:18:07.818Z,100954.77
2023-05-11T21:20:40.260Z,100953.73
2023-05-11T21:23:12.410Z,100954.44
2023-05-11T21:25:44.681Z,100958.39
2023-05-11T21:28:17.119Z,100955.58
2023-05-11T21:30:50.147Z,100959.91
2023-05-11T21:33:22.420Z,100961.59
2023-05-11T21:35:55.380Z,100966.58
2023-05-11T21:38:28.206Z,100963.36
2023-05-11T21:41:00.515Z,100967.87
2023-05-11T21:43:33.376Z,100964.65
2023-05-11T21:46:06.199Z,100968.25
2023-05-11T21:48:38.254Z,100966.80
2023-05-11T21:51:10.702Z,100971.71
2023-05-11T21:53:43.121Z,100963.73
2023-05-11T21:56:15.370Z,100971.30
2023-05-11T21:58:47.914Z,100972.33
2023-05-11T22:01:20.248Z,100974.73
2023-05-11T22:03:52.461Z,100979.07
2023-05-11T22:06:25.077Z,100976.58
2023-05-11T22:08:57.508Z,100978.16
2023-05-11T22:11:29.685Z,100976.23
2023-05-11T22:14:01.930Z,100977.52
2023-05-11T22:16:34.097Z,100976.54
2023-05-11T22:19:06.886Z,100976.09
2023-05-11T22:21:38.954Z,100978.89
2023-05-11T22:24:13.554Z,100977.79
2023-05-11T22:26:45.665Z,100976.16
2023-05-11T22:29:18.157Z,100978.88
2023-05-11T22:31:52.200Z,100977.26
2023-05-11T22:34:24.523Z,100980.14
2023-05-11T22:36:56.787Z,100981.71
2023-05-11T22:39:29.355Z,100986.36
2023-05-11T22:42:01.846Z,100985.06
2023-05-11T22:44:34.144Z,100986.89
2023-05-11T22:47:06.486Z,100989.20
2023-05-11T22:49:38.799Z,100987.02
2023-05-11T22:52:11.413Z,100982.77
2023-05-11T22:54:43.902Z,100986.13
2023-05-11T22:57:17.736Z,100984.98
2023-05-11T22:59:49.787Z,100986.41
2023-05-11T23:02:23.120Z,100986.30
2023-05-11T23:04:56.150Z,100987.96
2023-05-11T23:07:28.744Z,100987.24
2023-05-11T23:10:01.156Z,100987.14
2023-05-11T23:15:23.366Z,100993.69
2023-05-11T23:17:55.556Z,100994.31
2023-05-11T23:20:27.854Z,100994.11
2023-05-11T23:22:59.750Z,100993.14
2023-05-11T23:25:32.167Z,100994.64
2023-05-11T23:28:11.290Z,100990.84
2023-05-11T23:30:45.987Z,100991.10
2023-05-11T23:33:18.217Z,100986.35
2023-05-11T23:35:51.118Z,100987.29
2023-05-11T23:38:23.597Z,100986.02
2023-05-11T23:40:56.535Z,100987.14
2023-05-11T23:43:29.157Z,100986.77
2023-05-11T23:46:02.525Z,100973.00
2023-05-11T23:48:34.969Z,100983.98
2023-05-11T23:51:07.290Z,100987.48
2023-05-11T23:53:39.241Z,100981.03
2023-05-11T23:56:11.528Z,100982.02
2023-05-11T23:58:45.738Z,100987.63
